sensor_id;sensor_type;location;lat;lon;timestamp;temperature;humidity
51476;DHT22;37554;50.362;7.568;2023-02-28T00:00:22;14.50;37.60
51476;DHT22;37554;50.362;7.568;2023-02-28T00:02:48;14.50;37.70
51476;DHT22;37554;50.362;7.568;2023-02-28T00:05:16;14.50;37.80
51476;DHT22;37554;50.362;7.568;2023-02-28T00:07:42;14.50;37.80
51476;DHT22;37554;50.362;7.568;2023-02-28T00:10:11;14.40;37.80
51476;DHT22;37554;50.362;7.568;2023-02-28T00:12:37;14.40;37.90
51476;DHT22;37554;50.362;7.568;2023-02-28T00:15:08;14.40;37.90
51476;DHT22;37554;50.362;7.568;2023-02-28T00:17:34;14.40;37.90
51476;DHT22;37554;50.362;7.568;2023-02-28T00:20:00;14.40;38.00
51476;DHT22;37554;50.362;7.568;2023-02-28T00:22:30;14.30;38.00
51476;DHT22;37554;50.362;7.568;2023-02-28T00:24:55;14.30;38.10
51476;DHT22;37554;50.362;7.568;2023-02-28T00:27:21;14.20;38.20
51476;DHT22;37554;50.362;7.568;2023-02-28T00:29:47;14.20;38.20
51476;DHT22;37554;50.362;7.568;2023-02-28T00:32:12;14.20;38.20
51476;DHT22;37554;50.362;7.568;2023-02-28T00:34:38;14.20;38.30
51476;DHT22;37554;50.362;7.568;2023-02-28T00:37:09;14.20;38.20
51476;DHT22;37554;50.362;7.568;2023-02-28T00:39:38;14.20;38.30
51476;DHT22;37554;50.362;7.568;2023-02-28T00:42:05;14.20;38.20
51476;DHT22;37554;50.362;7.568;2023-02-28T00:44:31;14.10;38.20
51476;DHT22;37554;50.362;7.568;2023-02-28T00:46:57;14.10;38.90
51476;DHT22;37554;50.362;7.568;2023-02-28T00:49:23;14.00;38.30
51476;DHT22;37554;50.362;7.568;2023-02-28T00:51:49;14.00;38.40
51476;DHT22;37554;50.362;7.568;2023-02-28T00:54:17;13.90;38.40
51476;DHT22;37554;50.362;7.568;2023-02-28T00:56:43;14.00;38.50
51476;DHT22;37554;50.362;7.568;2023-02-28T00:59:08;13.90;38.40
51476;DHT22;37554;50.362;7.568;2023-02-28T01:01:34;13.90;38.50
51476;DHT22;37554;50.362;7.568;2023-02-28T01:04:00;13.90;38.60
51476;DHT22;37554;50.362;7.568;2023-02-28T01:06:25;13.80;38.60
51476;DHT22;37554;50.362;7.568;2023-02-28T01:08:51;13.80;38.60
51476;DHT22;37554;50.362;7.568;2023-02-28T01:11:17;13.80;38.60
51476;DHT22;37554;50.362;7.568;2023-02-28T01:13:44;13.80;38.60
51476;DHT22;37554;50.362;7.568;2023-02-28T01:16:11;13.80;38.60
51476;DHT22;37554;50.362;7.568;2023-02-28T01:18:37;13.80;38.70
51476;DHT22;37554;50.362;7.568;2023-02-28T01:21:04;13.70;38.70
51476;DHT22;37554;50.362;7.568;2023-02-28T01:23:30;13.70;38.80
51476;DHT22;37554;50.362;7.568;2023-02-28T01:25:56;13.60;38.80
51476;DHT22;37554;50.362;7.568;2023-02-28T01:28:22;13.60;38.80
51476;DHT22;37554;50.362;7.568;2023-02-28T01:30:48;13.60;38.80
51476;DHT22;37554;50.362;7.568;2023-02-28T01:33:14;13.60;38.90
51476;DHT22;37554;50.362;7.568;2023-02-28T01:35:40;13.60;39.60
51476;DHT22;37554;50.362;7.568;2023-02-28T01:38:05;13.50;38.80
51476;DHT22;37554;50.362;7.568;2023-02-28T01:40:31;13.50;38.90
51476;DHT22;37554;50.362;7.568;2023-02-28T01:42:56;13.50;39.00
51476;DHT22;37554;50.362;7.568;2023-02-28T01:45:26;13.50;38.90
51476;DHT22;37554;50.362;7.568;2023-02-28T01:47:55;13.50;39.00
51476;DHT22;37554;50.362;7.568;2023-02-28T01:50:27;13.40;39.00
51476;DHT22;37554;50.362;7.568;2023-02-28T01:52:56;13.40;39.10
51476;DHT22;37554;50.362;7.568;2023-02-28T01:55:23;13.30;39.00
51476;DHT22;37554;50.362;7.568;2023-02-28T01:57:56;13.40;39.10
51476;DHT22;37554;50.362;7.568;2023-02-28T02:00:24;13.30;39.00
51476;DHT22;37554;50.362;7.568;2023-02-28T02:02:55;13.30;39.00
51476;DHT22;37554;50.362;7.568;2023-02-28T02:05:25;13.30;39.20
51476;DHT22;37554;50.362;7.568;2023-02-28T02:07:57;13.20;39.10
51476;DHT22;37554;50.362;7.568;2023-02-28T02:10:46;13.20;39.10
51476;DHT22;37554;50.362;7.568;2023-02-28T02:13:34;13.20;39.20
51476;DHT22;37554;50.362;7.568;2023-02-28T02:16:36;13.20;39.20
51476;DHT22;37554;50.362;7.568;2023-02-28T02:27:33;13.00;39.30
51476;DHT22;37554;50.362;7.568;2023-02-28T02:38:23;12.90;39.30
51476;DHT22;37554;50.362;7.568;2023-02-28T02:41:07;12.90;39.40
51476;DHT22;37554;50.362;7.568;2023-02-28T02:43:44;12.90;39.40
51476;DHT22;37554;50.362;7.568;2023-02-28T02:46:24;12.80;39.40
51476;DHT22;37554;50.362;7.568;2023-02-28T02:48:55;12.80;39.50
51476;DHT22;37554;50.362;7.568;2023-02-28T02:51:23;12.80;39.60
51476;DHT22;37554;50.362;7.568;2023-02-28T02:54:04;12.80;39.60
51476;DHT22;37554;50.362;7.568;2023-02-28T02:56:32;12.70;39.60
51476;DHT22;37554;50.362;7.568;2023-02-28T02:59:06;12.70;39.60
51476;DHT22;37554;50.362;7.568;2023-02-28T03:01:34;12.70;39.60
51476;DHT22;37554;50.362;7.568;2023-02-28T03:04:05;12.70;39.60
51476;DHT22;37554;50.362;7.568;2023-02-28T03:06:32;12.60;39.60
51476;DHT22;37554;50.362;7.568;2023-02-28T03:09:00;12.60;39.60
51476;DHT22;37554;50.362;7.568;2023-02-28T03:11:25;12.60;39.80
51476;DHT22;37554;50.362;7.568;2023-02-28T03:30:51;12.40;39.80
51476;DHT22;37554;50.362;7.568;2023-02-28T03:33:41;12.40;39.90
51476;DHT22;37554;50.362;7.568;2023-02-28T03:36:14;12.30;40.00
51476;DHT22;37554;50.362;7.568;2023-02-28T03:38:57;12.30;39.90
51476;DHT22;37554;50.362;7.568;2023-02-28T03:41:38;12.30;40.00
51476;DHT22;37554;50.362;7.568;2023-02-28T03:44:30;12.30;40.00
51476;DHT22;37554;50.362;7.568;2023-02-28T03:47:00;12.20;40.00
51476;DHT22;37554;50.362;7.568;2023-02-28T03:49:35;12.20;39.90
51476;DHT22;37554;50.362;7.568;2023-02-28T03:52:04;12.20;40.00
51476;DHT22;37554;50.362;7.568;2023-02-28T03:54:33;12.20;39.90
51476;DHT22;37554;50.362;7.568;2023-02-28T04:00:20;12.20;40.10
51476;DHT22;37554;50.362;7.568;2023-02-28T04:02:46;12.10;40.00
51476;DHT22;37554;50.362;7.568;2023-02-28T04:05:18;12.10;40.00
51476;DHT22;37554;50.362;7.568;2023-02-28T04:07:44;12.10;40.00
51476;DHT22;37554;50.362;7.568;2023-02-28T04:10:11;12.10;40.00
51476;DHT22;37554;50.362;7.568;2023-02-28T04:12:37;12.00;40.00
51476;DHT22;37554;50.362;7.568;2023-02-28T04:15:03;12.00;40.20
51476;DHT22;37554;50.362;7.568;2023-02-28T04:17:28;12.00;40.20
51476;DHT22;37554;50.362;7.568;2023-02-28T04:19:54;12.00;40.20
51476;DHT22;37554;50.362;7.568;2023-02-28T04:22:22;12.00;40.10
51476;DHT22;37554;50.362;7.568;2023-02-28T04:24:47;12.00;40.20
51476;DHT22;37554;50.362;7.568;2023-02-28T04:27:13;12.00;40.20
51476;DHT22;37554;50.362;7.568;2023-02-28T04:29:41;11.90;40.10
51476;DHT22;37554;50.362;7.568;2023-02-28T04:32:10;11.90;40.10
51476;DHT22;37554;50.362;7.568;2023-02-28T04:34:36;11.90;40.20
51476;DHT22;37554;50.362;7.568;2023-02-28T04:37:02;11.90;40.10
51476;DHT22;37554;50.362;7.568;2023-02-28T04:39:28;11.90;40.10
51476;DHT22;37554;50.362;7.568;2023-02-28T04:41:55;11.80;40.20
51476;DHT22;37554;50.362;7.568;2023-02-28T04:44:21;11.80;40.30
51476;DHT22;37554;50.362;7.568;2023-02-28T04:46:48;11.80;40.30
51476;DHT22;37554;50.362;7.568;2023-02-28T04:49:14;11.80;40.30
51476;DHT22;37554;50.362;7.568;2023-02-28T04:51:41;11.80;40.30
51476;DHT22;37554;50.362;7.568;2023-02-28T04:54:07;11.70;40.30
51476;DHT22;37554;50.362;7.568;2023-02-28T04:56:33;11.70;40.30
51476;DHT22;37554;50.362;7.568;2023-02-28T04:58:58;11.70;40.30
51476;DHT22;37554;50.362;7.568;2023-02-28T05:03:50;11.70;40.40
51476;DHT22;37554;50.362;7.568;2023-02-28T05:06:17;11.60;40.30
51476;DHT22;37554;50.362;7.568;2023-02-28T05:08:43;11.60;40.40
51476;DHT22;37554;50.362;7.568;2023-02-28T05:11:17;11.60;40.40
51476;DHT22;37554;50.362;7.568;2023-02-28T05:13:44;11.60;40.40
51476;DHT22;37554;50.362;7.568;2023-02-28T05:16:09;11.60;40.50
51476;DHT22;37554;50.362;7.568;2023-02-28T05:18:35;11.50;40.50
51476;DHT22;37554;50.362;7.568;2023-02-28T05:21:01;11.50;40.50
51476;DHT22;37554;50.362;7.568;2023-02-28T05:23:27;11.50;40.50
51476;DHT22;37554;50.362;7.568;2023-02-28T05:25:53;11.40;40.50
51476;DHT22;37554;50.362;7.568;2023-02-28T05:28:20;11.40;40.50
51476;DHT22;37554;50.362;7.568;2023-02-28T05:30:46;11.40;40.60
51476;DHT22;37554;50.362;7.568;2023-02-28T05:33:12;11.40;40.70
51476;DHT22;37554;50.362;7.568;2023-02-28T05:35:39;11.30;40.60
51476;DHT22;37554;50.362;7.568;2023-02-28T05:38:05;11.40;40.70
51476;DHT22;37554;50.362;7.568;2023-02-28T05:40:31;11.40;40.70
51476;DHT22;37554;50.362;7.568;2023-02-28T05:42:56;11.40;40.70
51476;DHT22;37554;50.362;7.568;2023-02-28T05:45:22;11.40;40.70
51476;DHT22;37554;50.362;7.568;2023-02-28T05:47:48;11.40;40.70
51476;DHT22;37554;50.362;7.568;2023-02-28T05:50:13;11.40;40.60
51476;DHT22;37554;50.362;7.568;2023-02-28T05:52:39;11.40;40.70
51476;DHT22;37554;50.362;7.568;2023-02-28T05:55:05;11.40;40.70
51476;DHT22;37554;50.362;7.568;2023-02-28T05:57:30;11.40;40.70
51476;DHT22;37554;50.362;7.568;2023-02-28T05:59:56;11.40;40.70
51476;DHT22;37554;50.362;7.568;2023-02-28T06:02:22;11.40;40.70
51476;DHT22;37554;50.362;7.568;2023-02-28T06:04:47;11.40;40.60
51476;DHT22;37554;50.362;7.568;2023-02-28T06:07:13;11.40;40.60
51476;DHT22;37554;50.362;7.568;2023-02-28T06:09:38;11.40;40.70
51476;DHT22;37554;50.362;7.568;2023-02-28T06:12:05;11.40;40.60
51476;DHT22;37554;50.362;7.568;2023-02-28T06:14:33;11.40;40.60
51476;DHT22;37554;50.362;7.568;2023-02-28T06:17:00;11.40;40.60
51476;DHT22;37554;50.362;7.568;2023-02-28T06:19:26;11.40;40.70
51476;DHT22;37554;50.362;7.568;2023-02-28T06:21:52;11.30;40.60
51476;DHT22;37554;50.362;7.568;2023-02-28T06:24:20;11.40;40.70
51476;DHT22;37554;50.362;7.568;2023-02-28T06:26:46;11.40;40.60
51476;DHT22;37554;50.362;7.568;2023-02-28T06:29:12;11.30;40.60
51476;DHT22;37554;50.362;7.568;2023-02-28T06:31:37;11.30;40.60
51476;DHT22;37554;50.362;7.568;2023-02-28T06:34:06;11.30;40.60
51476;DHT22;37554;50.362;7.568;2023-02-28T06:36:31;11.30;40.70
51476;DHT22;37554;50.362;7.568;2023-02-28T06:38:57;11.30;40.60
51476;DHT22;37554;50.362;7.568;2023-02-28T06:41:26;11.20;40.20
51476;DHT22;37554;50.362;7.568;2023-02-28T06:43:53;10.40;40.00
51476;DHT22;37554;50.362;7.568;2023-02-28T06:46:19;10.00;41.50
51476;DHT22;37554;50.362;7.568;2023-02-28T06:48:45;10.30;43.20
51476;DHT22;37554;50.362;7.568;2023-02-28T06:51:21;10.50;43.60
51476;DHT22;37554;50.362;7.568;2023-02-28T06:53:47;10.80;43.40
51476;DHT22;37554;50.362;7.568;2023-02-28T06:56:15;11.00;43.10
51476;DHT22;37554;50.362;7.568;2023-02-28T06:58:41;11.10;42.80
51476;DHT22;37554;50.362;7.568;2023-02-28T07:01:08;11.30;42.60
51476;DHT22;37554;50.362;7.568;2023-02-28T07:03:35;11.40;42.30
51476;DHT22;37554;50.362;7.568;2023-02-28T07:06:01;11.40;42.10
51476;DHT22;37554;50.362;7.568;2023-02-28T07:08:28;11.60;42.10
51476;DHT22;37554;50.362;7.568;2023-02-28T07:10:57;11.60;41.80
51476;DHT22;37554;50.362;7.568;2023-02-28T07:13:24;11.70;41.80
51476;DHT22;37554;50.362;7.568;2023-02-28T07:16:00;11.70;41.70
51476;DHT22;37554;50.362;7.568;2023-02-28T07:18:26;11.70;41.40
51476;DHT22;37554;50.362;7.568;2023-02-28T07:20:53;11.80;41.40
51476;DHT22;37554;50.362;7.568;2023-02-28T07:23:19;11.80;41.20
51476;DHT22;37554;50.362;7.568;2023-02-28T07:25:45;11.90;41.20
51476;DHT22;37554;50.362;7.568;2023-02-28T07:28:12;11.80;41.10
51476;DHT22;37554;50.362;7.568;2023-02-28T07:30:38;11.90;41.20
51476;DHT22;37554;50.362;7.568;2023-02-28T07:33:04;11.90;41.10
51476;DHT22;37554;50.362;7.568;2023-02-28T07:35:30;11.90;41.00
51476;DHT22;37554;50.362;7.568;2023-02-28T07:37:58;11.90;40.90
51476;DHT22;37554;50.362;7.568;2023-02-28T07:40:24;12.00;40.90
51476;DHT22;37554;50.362;7.568;2023-02-28T07:42:50;12.00;40.80
51476;DHT22;37554;50.362;7.568;2023-02-28T07:45:16;12.00;40.80
51476;DHT22;37554;50.362;7.568;2023-02-28T07:47:46;12.00;40.70
51476;DHT22;37554;50.362;7.568;2023-02-28T07:50:15;12.00;40.60
51476;DHT22;37554;50.362;7.568;2023-02-28T07:52:41;12.00;40.60
51476;DHT22;37554;50.362;7.568;2023-02-28T07:55:10;12.00;40.50
51476;DHT22;37554;50.362;7.568;2023-02-28T07:57:36;12.00;40.50
51476;DHT22;37554;50.362;7.568;2023-02-28T08:00:08;12.10;40.40
51476;DHT22;37554;50.362;7.568;2023-02-28T08:02:38;12.10;40.30
51476;DHT22;37554;50.362;7.568;2023-02-28T08:05:07;12.30;40.10
51476;DHT22;37554;50.362;7.568;2023-02-28T08:07:36;12.40;40.00
51476;DHT22;37554;50.362;7.568;2023-02-28T08:10:02;12.50;39.80
51476;DHT22;37554;50.362;7.568;2023-02-28T08:12:28;12.70;39.80
51476;DHT22;37554;50.362;7.568;2023-02-28T08:14:56;12.80;39.60
51476;DHT22;37554;50.362;7.568;2023-02-28T08:17:22;12.80;39.60
51476;DHT22;37554;50.362;7.568;2023-02-28T08:19:50;13.00;39.50
51476;DHT22;37554;50.362;7.568;2023-02-28T08:22:16;13.10;39.40
51476;DHT22;37554;50.362;7.568;2023-02-28T08:24:44;13.20;39.30
51476;DHT22;37554;50.362;7.568;2023-02-28T08:27:11;13.30;39.10
51476;DHT22;37554;50.362;7.568;2023-02-28T08:29:37;13.40;39.10
51476;DHT22;37554;50.362;7.568;2023-02-28T08:32:05;13.50;38.90
51476;DHT22;37554;50.362;7.568;2023-02-28T08:34:33;13.60;38.80
51476;DHT22;37554;50.362;7.568;2023-02-28T08:37:05;13.60;38.80
51476;DHT22;37554;50.362;7.568;2023-02-28T08:39:35;13.70;38.80
51476;DHT22;37554;50.362;7.568;2023-02-28T08:42:06;13.70;38.80
51476;DHT22;37554;50.362;7.568;2023-02-28T08:44:32;13.80;38.70
51476;DHT22;37554;50.362;7.568;2023-02-28T08:46:58;14.00;38.70
51476;DHT22;37554;50.362;7.568;2023-02-28T08:49:23;14.10;38.50
51476;DHT22;37554;50.362;7.568;2023-02-28T08:51:49;14.10;38.40
51476;DHT22;37554;50.362;7.568;2023-02-28T08:54:15;14.20;38.40
51476;DHT22;37554;50.362;7.568;2023-02-28T08:56:45;14.30;38.30
51476;DHT22;37554;50.362;7.568;2023-02-28T08:59:11;14.40;38.10
51476;DHT22;37554;50.362;7.568;2023-02-28T09:01:40;14.50;38.00
51476;DHT22;37554;50.362;7.568;2023-02-28T09:04:07;14.80;37.60
51476;DHT22;37554;50.362;7.568;2023-02-28T09:06:39;15.00;37.30
51476;DHT22;37554;50.362;7.568;2023-02-28T09:09:08;15.10;37.20
51476;DHT22;37554;50.362;7.568;2023-02-28T09:11:35;15.30;37.00
51476;DHT22;37554;50.362;7.568;2023-02-28T09:14:01;15.50;36.80
51476;DHT22;37554;50.362;7.568;2023-02-28T09:16:29;15.70;36.40
51476;DHT22;37554;50.362;7.568;2023-02-28T09:18:59;15.80;36.40
51476;DHT22;37554;50.362;7.568;2023-02-28T09:21:28;15.70;36.30
51476;DHT22;37554;50.362;7.568;2023-02-28T09:23:53;15.90;36.40
51476;DHT22;37554;50.362;7.568;2023-02-28T09:26:27;16.10;36.00
51476;DHT22;37554;50.362;7.568;2023-02-28T09:28:54;16.40;35.60
51476;DHT22;37554;50.362;7.568;2023-02-28T09:31:23;16.60;35.30
51476;DHT22;37554;50.362;7.568;2023-02-28T09:33:51;16.80;34.90
51476;DHT22;37554;50.362;7.568;2023-02-28T09:36:18;17.10;35.90
51476;DHT22;37554;50.362;7.568;2023-02-28T09:38:44;17.40;37.20
51476;DHT22;37554;50.362;7.568;2023-02-28T09:41:23;17.70;37.90
51476;DHT22;37554;50.362;7.568;2023-02-28T09:43:58;17.80;38.30
51476;DHT22;37554;50.362;7.568;2023-02-28T09:47:46;18.10;37.60
51476;DHT22;37554;50.362;7.568;2023-02-28T09:49:47;18.30;36.80
51476;DHT22;37554;50.362;7.568;2023-02-28T09:52:21;18.70;37.10
51476;DHT22;37554;50.362;7.568;2023-02-28T09:54:49;19.10;37.10
51476;DHT22;37554;50.362;7.568;2023-02-28T09:57:37;19.50;36.80
51476;DHT22;37554;50.362;7.568;2023-02-28T10:05:14;20.10;35.50
51476;DHT22;37554;50.362;7.568;2023-02-28T10:08:05;20.50;34.80
51476;DHT22;37554;50.362;7.568;2023-02-28T10:13:06;21.40;33.30
51476;DHT22;37554;50.362;7.568;2023-02-28T10:15:45;21.50;32.70
51476;DHT22;37554;50.362;7.568;2023-02-28T10:18:22;21.40;32.40
51476;DHT22;37554;50.362;7.568;2023-02-28T10:20:50;21.50;32.30
51476;DHT22;37554;50.362;7.568;2023-02-28T10:23:36;21.70;32.20
51476;DHT22;37554;50.362;7.568;2023-02-28T10:26:12;21.80;31.40
51476;DHT22;37554;50.362;7.568;2023-02-28T10:28:38;22.20;31.40
51476;DHT22;37554;50.362;7.568;2023-02-28T10:31:04;22.60;31.20
51476;DHT22;37554;50.362;7.568;2023-02-28T10:33:32;22.80;30.80
51476;DHT22;37554;50.362;7.568;2023-02-28T10:36:00;23.20;30.40
51476;DHT22;37554;50.362;7.568;2023-02-28T10:38:33;23.30;30.10
51476;DHT22;37554;50.362;7.568;2023-02-28T10:43:31;24.10;29.60
51476;DHT22;37554;50.362;7.568;2023-02-28T10:48:38;24.80;29.10
51476;DHT22;37554;50.362;7.568;2023-02-28T10:51:07;24.70;28.60
51476;DHT22;37554;50.362;7.568;2023-02-28T10:59:11;24.10;27.90
51476;DHT22;37554;50.362;7.568;2023-02-28T11:01:48;23.60;26.90
51476;DHT22;37554;50.362;7.568;2023-02-28T11:07:18;22.90;28.00
51476;DHT22;37554;50.362;7.568;2023-02-28T11:09:52;23.10;27.50
51476;DHT22;37554;50.362;7.568;2023-02-28T11:12:27;23.10;27.50
51476;DHT22;37554;50.362;7.568;2023-02-28T11:15:04;23.00;27.50
51476;DHT22;37554;50.362;7.568;2023-02-28T11:17:32;23.00;27.70
51476;DHT22;37554;50.362;7.568;2023-02-28T11:20:04;23.00;27.90
51476;DHT22;37554;50.362;7.568;2023-02-28T11:22:35;23.50;27.90
51476;DHT22;37554;50.362;7.568;2023-02-28T11:25:09;23.60;27.80
51476;DHT22;37554;50.362;7.568;2023-02-28T11:27:54;24.00;27.70
51476;DHT22;37554;50.362;7.568;2023-02-28T11:30:31;24.20;27.40
51476;DHT22;37554;50.362;7.568;2023-02-28T11:33:13;23.90;27.50
51476;DHT22;37554;50.362;7.568;2023-02-28T11:35:43;23.70;27.70
51476;DHT22;37554;50.362;7.568;2023-02-28T11:38:12;23.60;27.90
51476;DHT22;37554;50.362;7.568;2023-02-28T11:46:22;25.50;27.30
51476;DHT22;37554;50.362;7.568;2023-02-28T11:57:41;25.90;27.30
51476;DHT22;37554;50.362;7.568;2023-02-28T11:59:55;25.90;27.30
51476;DHT22;37554;50.362;7.568;2023-02-28T12:04:57;25.50;27.90
51476;DHT22;37554;50.362;7.568;2023-02-28T12:10:21;25.70;28.20
51476;DHT22;37554;50.362;7.568;2023-02-28T12:13:12;25.70;28.10
51476;DHT22;37554;50.362;7.568;2023-02-28T12:15:59;25.40;28.10
51476;DHT22;37554;50.362;7.568;2023-02-28T12:24:08;24.80;28.80
51476;DHT22;37554;50.362;7.568;2023-02-28T12:26:46;24.90;29.50
51476;DHT22;37554;50.362;7.568;2023-02-28T12:29:26;25.10;29.00
51476;DHT22;37554;50.362;7.568;2023-02-28T12:32:06;25.50;28.80
51476;DHT22;37554;50.362;7.568;2023-02-28T12:34:47;25.80;28.50
51476;DHT22;37554;50.362;7.568;2023-02-28T12:37:21;26.10;28.50
51476;DHT22;37554;50.362;7.568;2023-02-28T12:39:51;26.30;28.60
51476;DHT22;37554;50.362;7.568;2023-02-28T12:42:41;26.60;28.60
51476;DHT22;37554;50.362;7.568;2023-02-28T12:47:39;26.90;28.50
51476;DHT22;37554;50.362;7.568;2023-02-28T12:50:08;27.10;28.50
51476;DHT22;37554;50.362;7.568;2023-02-28T12:55:32;27.30;28.50
51476;DHT22;37554;50.362;7.568;2023-02-28T12:58:27;27.50;28.60
51476;DHT22;37554;50.362;7.568;2023-02-28T13:09:27;27.90;28.60
51476;DHT22;37554;50.362;7.568;2023-02-28T13:11:55;28.00;28.80
51476;DHT22;37554;50.362;7.568;2023-02-28T13:14:30;28.20;28.80
51476;DHT22;37554;50.362;7.568;2023-02-28T13:17:30;28.30;28.80
51476;DHT22;37554;50.362;7.568;2023-02-28T13:19:58;28.60;28.70
51476;DHT22;37554;50.362;7.568;2023-02-28T13:22:44;28.70;28.10
51476;DHT22;37554;50.362;7.568;2023-02-28T13:27:50;26.30;25.10
51476;DHT22;37554;50.362;7.568;2023-02-28T13:33:36;27.00;26.40
51476;DHT22;37554;50.362;7.568;2023-02-28T13:36:30;27.60;26.00
51476;DHT22;37554;50.362;7.568;2023-02-28T13:38:58;28.10;26.00
51476;DHT22;37554;50.362;7.568;2023-02-28T13:44:09;28.70;26.40
51476;DHT22;37554;50.362;7.568;2023-02-28T13:49:33;29.40;26.50
51476;DHT22;37554;50.362;7.568;2023-02-28T13:52:15;29.70;26.20
51476;DHT22;37554;50.362;7.568;2023-02-28T14:00:20;30.30;26.20
51476;DHT22;37554;50.362;7.568;2023-02-28T14:05:39;30.60;26.00
51476;DHT22;37554;50.362;7.568;2023-02-28T14:08:15;30.60;26.30
51476;DHT22;37554;50.362;7.568;2023-02-28T14:10:47;30.60;26.20
51476;DHT22;37554;50.362;7.568;2023-02-28T14:13:44;30.60;26.30
51476;DHT22;37554;50.362;7.568;2023-02-28T14:16:14;30.60;26.20
51476;DHT22;37554;50.362;7.568;2023-02-28T14:19:10;30.70;26.50
51476;DHT22;37554;50.362;7.568;2023-02-28T14:21:43;30.70;26.10
51476;DHT22;37554;50.362;7.568;2023-02-28T14:27:21;30.70;26.00
51476;DHT22;37554;50.362;7.568;2023-02-28T14:32:28;30.70;26.10
51476;DHT22;37554;50.362;7.568;2023-02-28T14:35:20;30.30;25.60
51476;DHT22;37554;50.362;7.568;2023-02-28T14:37:48;29.40;26.00
51476;DHT22;37554;50.362;7.568;2023-02-28T14:40:27;28.90;26.80
51476;DHT22;37554;50.362;7.568;2023-02-28T14:42:58;28.50;27.10
51476;DHT22;37554;50.362;7.568;2023-02-28T14:45:31;28.20;27.50
51476;DHT22;37554;50.362;7.568;2023-02-28T14:47:58;27.90;27.60
51476;DHT22;37554;50.362;7.568;2023-02-28T14:50:31;27.60;27.80
51476;DHT22;37554;50.362;7.568;2023-02-28T14:52:57;27.30;27.70
51476;DHT22;37554;50.362;7.568;2023-02-28T14:55:33;27.00;27.90
51476;DHT22;37554;50.362;7.568;2023-02-28T14:58:02;26.80;27.90
51476;DHT22;37554;50.362;7.568;2023-02-28T15:00:53;26.50;28.00
51476;DHT22;37554;50.362;7.568;2023-02-28T15:05:58;26.20;28.10
51476;DHT22;37554;50.362;7.568;2023-02-28T15:08:25;26.10;27.80
51476;DHT22;37554;50.362;7.568;2023-02-28T15:13:28;25.90;28.00
51476;DHT22;37554;50.362;7.568;2023-02-28T15:16:00;25.80;27.90
51476;DHT22;37554;50.362;7.568;2023-02-28T15:21:07;25.80;27.80
51476;DHT22;37554;50.362;7.568;2023-02-28T15:23:36;25.90;27.90
51476;DHT22;37554;50.362;7.568;2023-02-28T15:26:02;26.00;28.00
51476;DHT22;37554;50.362;7.568;2023-02-28T15:28:29;26.00;28.00
51476;DHT22;37554;50.362;7.568;2023-02-28T15:31:00;26.00;28.20
51476;DHT22;37554;50.362;7.568;2023-02-28T15:33:31;26.00;28.20
51476;DHT22;37554;50.362;7.568;2023-02-28T15:36:14;26.00;28.30
51476;DHT22;37554;50.362;7.568;2023-02-28T15:38:41;26.00;28.50
51476;DHT22;37554;50.362;7.568;2023-02-28T15:41:22;26.00;28.60
51476;DHT22;37554;50.362;7.568;2023-02-28T15:43:49;25.90;28.60
51476;DHT22;37554;50.362;7.568;2023-02-28T15:46:14;25.80;28.70
51476;DHT22;37554;50.362;7.568;2023-02-28T15:48:54;25.80;28.80
51476;DHT22;37554;50.362;7.568;2023-02-28T15:51:32;25.70;28.90
51476;DHT22;37554;50.362;7.568;2023-02-28T15:54:12;25.60;29.00
51476;DHT22;37554;50.362;7.568;2023-02-28T15:56:46;25.60;29.20
51476;DHT22;37554;50.362;7.568;2023-02-28T15:59:21;25.50;29.70
51476;DHT22;37554;50.362;7.568;2023-02-28T16:02:03;25.40;29.20
51476;DHT22;37554;50.362;7.568;2023-02-28T16:04:28;25.30;29.30
51476;DHT22;37554;50.362;7.568;2023-02-28T16:09:25;25.10;29.60
51476;DHT22;37554;50.362;7.568;2023-02-28T16:11:55;24.90;29.60
51476;DHT22;37554;50.362;7.568;2023-02-28T16:14:24;24.80;29.70
51476;DHT22;37554;50.362;7.568;2023-02-28T16:16:54;24.70;29.80
51476;DHT22;37554;50.362;7.568;2023-02-28T16:19:20;24.70;29.90
51476;DHT22;37554;50.362;7.568;2023-02-28T16:21:46;24.60;30.00
51476;DHT22;37554;50.362;7.568;2023-02-28T16:24:12;24.50;30.00
51476;DHT22;37554;50.362;7.568;2023-02-28T16:26:40;24.40;30.10
51476;DHT22;37554;50.362;7.568;2023-02-28T16:29:06;24.30;30.20
51476;DHT22;37554;50.362;7.568;2023-02-28T16:31:35;24.20;30.30
51476;DHT22;37554;50.362;7.568;2023-02-28T16:34:02;24.10;30.30
51476;DHT22;37554;50.362;7.568;2023-02-28T16:36:29;24.00;31.10
51476;DHT22;37554;50.362;7.568;2023-02-28T16:38:55;23.90;30.60
51476;DHT22;37554;50.362;7.568;2023-02-28T16:41:24;23.80;30.70
51476;DHT22;37554;50.362;7.568;2023-02-28T16:43:53;23.70;30.70
51476;DHT22;37554;50.362;7.568;2023-02-28T16:46:20;23.60;30.70
51476;DHT22;37554;50.362;7.568;2023-02-28T16:48:46;23.50;31.10
51476;DHT22;37554;50.362;7.568;2023-02-28T16:51:16;23.40;31.30
51476;DHT22;37554;50.362;7.568;2023-02-28T16:53:44;23.30;31.20
51476;DHT22;37554;50.362;7.568;2023-02-28T16:56:16;23.20;31.50
51476;DHT22;37554;50.362;7.568;2023-02-28T16:58:42;23.10;31.70
51476;DHT22;37554;50.362;7.568;2023-02-28T17:01:08;23.00;31.80
51476;DHT22;37554;50.362;7.568;2023-02-28T17:03:34;22.90;32.00
51476;DHT22;37554;50.362;7.568;2023-02-28T17:06:02;22.80;32.00
51476;DHT22;37554;50.362;7.568;2023-02-28T17:08:28;22.70;32.20
51476;DHT22;37554;50.362;7.568;2023-02-28T17:10:55;22.60;32.30
51476;DHT22;37554;50.362;7.568;2023-02-28T17:13:21;22.60;32.50
51476;DHT22;37554;50.362;7.568;2023-02-28T17:15:47;22.50;32.60
51476;DHT22;37554;50.362;7.568;2023-02-28T17:18:17;22.40;32.70
51476;DHT22;37554;50.362;7.568;2023-02-28T17:20:47;22.30;32.90
51476;DHT22;37554;50.362;7.568;2023-02-28T17:23:13;22.20;32.80
51476;DHT22;37554;50.362;7.568;2023-02-28T17:25:39;22.10;32.60
51476;DHT22;37554;50.362;7.568;2023-02-28T17:28:05;22.10;32.40
51476;DHT22;37554;50.362;7.568;2023-02-28T17:30:33;22.00;32.20
51476;DHT22;37554;50.362;7.568;2023-02-28T17:32:59;22.00;32.10
51476;DHT22;37554;50.362;7.568;2023-02-28T17:35:24;21.90;32.00
51476;DHT22;37554;50.362;7.568;2023-02-28T17:37:52;21.70;31.90
51476;DHT22;37554;50.362;7.568;2023-02-28T17:40:23;21.70;31.90
51476;DHT22;37554;50.362;7.568;2023-02-28T17:42:48;21.50;31.80
51476;DHT22;37554;50.362;7.568;2023-02-28T17:45:15;21.50;31.80
51476;DHT22;37554;50.362;7.568;2023-02-28T17:47:42;21.40;31.90
51476;DHT22;37554;50.362;7.568;2023-02-28T17:50:15;21.30;31.80
51476;DHT22;37554;50.362;7.568;2023-02-28T17:52:41;21.20;31.70
51476;DHT22;37554;50.362;7.568;2023-02-28T17:55:08;21.10;31.70
51476;DHT22;37554;50.362;7.568;2023-02-28T17:57:33;21.00;31.60
51476;DHT22;37554;50.362;7.568;2023-02-28T17:59:59;20.90;31.60
51476;DHT22;37554;50.362;7.568;2023-02-28T18:02:25;20.80;31.50